createdAt,value
2022-09-10T00:01:38.108Z,100905.03
2022-09-10T00:04:12.185Z,100908.53
2022-09-10T00:06:41.048Z,100911.97
2022-09-10T00:09:10.848Z,100905.75
2022-09-10T00:11:41.940Z,100913.66
2022-09-10T00:14:15.132Z,100908.38
2022-09-10T00:16:43.321Z,100916.25
2022-09-10T00:19:12.008Z,100910.06
2022-09-10T00:21:40.173Z,100923.22
2022-09-10T00:24:08.595Z,100917.03
2022-09-10T00:26:39.858Z,100911.75
2022-09-10T00:29:11.739Z,100913.47
2022-09-10T00:31:40.787Z,100917.81
2022-09-10T00:34:10.064Z,100916.00
2022-09-10T00:36:41.077Z,100916.00
2022-09-10T00:39:12.891Z,100922.06
2022-09-10T00:41:45.633Z,100918.50
2022-09-10T00:44:58.739Z,100912.41
2022-09-10T00:47:33.148Z,100919.50
2022-09-10T00:50:09.290Z,100915.09
2022-09-10T00:52:39.919Z,100922.13
2022-09-10T00:55:10.298Z,100916.00
2022-09-10T00:57:40.150Z,100924.78
2022-09-10T01:00:13.595Z,100923.94
2022-09-10T01:02:42.009Z,100918.72
2022-09-10T01:05:12.471Z,100917.91
2022-09-10T01:07:40.706Z,100922.44
2022-09-10T01:10:15.154Z,100926.94
2022-09-10T01:13:08.976Z,100923.53
2022-09-10T01:15:44.898Z,100925.31
2022-09-10T01:18:31.491Z,100928.81
2022-09-10T01:21:13.384Z,100925.22
2022-09-10T01:24:15.180Z,100931.28
2022-09-10T01:27:07.957Z,100926.75
2022-09-10T01:29:44.559Z,100933.69
2022-09-10T01:32:15.479Z,100929.22
2022-09-10T01:34:54.313Z,100938.84
2022-09-10T01:37:29.883Z,100932.66
2022-09-10T01:40:00.271Z,100936.13
2022-09-10T01:42:29.768Z,100942.25
2022-09-10T01:44:59.838Z,100934.25
2022-09-10T01:47:55.854Z,100942.16
2022-09-10T01:50:35.074Z,100935.09
2022-09-10T01:53:19.648Z,100936.78
2022-09-10T01:55:58.180Z,100936.72
2022-09-10T01:58:34.636Z,100930.53
2022-09-10T02:01:15.602Z,100934.91
2022-09-10T02:03:47.827Z,100933.13
2022-09-10T02:06:20.517Z,100932.16
2022-09-10T02:08:52.412Z,100927.72
2022-09-10T02:11:21.416Z,100937.25
2022-09-10T02:13:50.346Z,100937.22
2022-09-10T02:16:26.954Z,100938.00
2022-09-10T02:18:56.303Z,100934.38
2022-09-10T02:21:24.749Z,100931.75
2022-09-10T02:23:58.001Z,100937.88
2022-09-10T02:26:27.192Z,100933.41
2022-09-10T02:28:55.341Z,100936.97
2022-09-10T02:31:25.747Z,100936.97
2022-09-10T02:33:54.517Z,100945.88
2022-09-10T02:36:26.168Z,100937.94
2022-09-10T02:38:56.765Z,100938.81
2022-09-10T02:41:25.663Z,100941.44
2022-09-10T02:43:53.768Z,100937.03
2022-09-10T02:46:22.126Z,100946.69
2022-09-10T02:48:51.523Z,100942.19
2022-09-10T02:51:19.591Z,100943.00
2022-09-10T02:53:47.649Z,100943.88
2022-09-10T02:56:16.047Z,100942.06
2022-09-10T02:58:45.209Z,100940.34
2022-09-10T03:01:16.680Z,100942.03
2022-09-10T03:03:44.825Z,100944.69
2022-09-10T03:06:14.217Z,100947.28
2022-09-10T03:08:42.379Z,100945.53
2022-09-10T03:11:12.948Z,100937.59
2022-09-10T03:13:42.551Z,100943.75
2022-09-10T03:16:13.194Z,100941.09
2022-09-10T03:18:41.433Z,100939.34
2022-09-10T03:21:11.602Z,100931.38
2022-09-10T03:23:41.131Z,100937.59
2022-09-10T03:26:10.725Z,100941.13
2022-09-10T03:28:39.271Z,100933.16
2022-09-10T03:31:08.027Z,100934.09
2022-09-10T03:33:37.419Z,100931.47
2022-09-10T03:36:05.673Z,100936.75
2022-09-10T03:38:34.070Z,100932.34
2022-09-10T03:41:03.654Z,100935.03
2022-09-10T03:43:32.157Z,100940.34
2022-09-10T03:46:00.242Z,100948.28
2022-09-10T03:48:28.297Z,100939.41
2022-09-10T03:50:56.802Z,100949.13
2022-09-10T03:53:25.190Z,100943.75
2022-09-10T03:55:56.294Z,100947.28
2022-09-10T03:58:26.764Z,100951.59
2022-09-10T04:00:54.896Z,100952.56
2022-09-10T04:03:22.994Z,100949.13
2022-09-10T04:05:51.412Z,100943.00
2022-09-10T04:08:20.657Z,100949.25
2022-09-10T04:10:49.366Z,100946.63
2022-09-10T04:13:17.661Z,100947.47
2022-09-10T04:15:47.159Z,100948.41
2022-09-10T04:18:15.713Z,100940.38
2022-09-10T04:20:47.982Z,100942.97
2022-09-10T04:23:16.731Z,100944.69
2022-09-10T04:25:44.857Z,100948.16
2022-09-10T04:28:13.028Z,100943.75
2022-09-10T04:30:41.215Z,100945.53
2022-09-10T04:33:11.610Z,100949.91
2022-09-10T04:35:40.423Z,100947.22
2022-09-10T04:38:09.034Z,100947.16
2022-09-10T04:40:38.299Z,100944.47
2022-09-10T04:43:06.309Z,100955.91
2022-09-10T04:45:34.641Z,100961.16
2022-09-10T04:48:06.862Z,100967.25
2022-09-10T04:50:36.791Z,100967.22
2022-09-10T04:53:05.403Z,100973.38
2022-09-10T04:55:33.786Z,100971.53
2022-09-10T04:58:01.868Z,100976.81
2022-09-10T05:00:29.927Z,100976.78
2022-09-10T05:02:58.071Z,100982.00
2022-09-10T05:05:26.163Z,100979.28
2022-09-10T05:07:55.570Z,100985.41
2022-09-10T05:10:24.386Z,100983.69
2022-09-10T05:12:52.498Z,100981.94
2022-09-10T05:15:20.582Z,100977.44
2022-09-10T05:17:49.262Z,100980.94
2022-09-10T05:20:17.608Z,100973.84
2022-09-10T05:22:45.681Z,100981.72
2022-09-10T05:25:15.783Z,100979.91
2022-09-10T05:27:43.872Z,100986.94
2022-09-10T05:30:12.750Z,100978.91
2022-09-10T05:32:41.071Z,100985.03
2022-09-10T05:35:10.789Z,100981.44
2022-09-10T05:37:38.975Z,100977.81
2022-09-10T05:40:09.214Z,100988.31
2022-09-10T05:42:38.705Z,100988.28
2022-09-10T05:45:10.021Z,100989.03
2022-09-10T05:47:38.537Z,100992.50
2022-09-10T05:50:08.101Z,100998.59
2022-09-10T05:52:36.179Z,100995.88
2022-09-10T05:55:04.819Z,100999.38
2022-09-10T05:57:32.951Z,100998.41
2022-09-10T06:00:03.496Z,101005.41
2022-09-10T06:02:31.750Z,101004.47
2022-09-10T06:05:00.545Z,101014.13
2022-09-10T06:07:29.981Z,101007.91
2022-09-10T06:09:58.385Z,101015.81
2022-09-10T06:12:27.251Z,101013.09
2022-09-10T06:14:55.452Z,101024.59
2022-09-10T06:17:24.931Z,101026.28
2022-09-10T06:19:53.050Z,101028.88
2022-09-10T06:22:21.135Z,101035.00
2022-09-10T06:24:49.626Z,101042.03
2022-09-10T06:27:18.036Z,101042.91
2022-09-10T06:29:47.275Z,101041.13
2022-09-10T06:32:15.399Z,101042.00
2022-09-10T06:34:44.822Z,101057.81
2022-09-10T06:37:13.265Z,101054.28
2022-09-10T06:39:41.360Z,101056.09
2022-09-10T06:42:09.835Z,101050.78
2022-09-10T06:44:37.899Z,101056.91
2022-09-10T06:49:55.946Z,101056.09
2022-09-10T06:52:24.644Z,101059.66
2022-09-10T06:54:53.085Z,101056.13
2022-09-10T06:57:21.187Z,101054.34
2022-09-10T06:59:49.363Z,101065.75
2022-09-10T07:02:17.637Z,101060.41
2022-09-10T07:04:45.907Z,101062.09
2022-09-10T07:07:15.352Z,101062.81
2022-09-10T07:09:46.114Z,101064.53
2022-09-10T07:12:14.302Z,101068.03
2022-09-10T07:14:43.051Z,101075.03
2022-09-10T07:17:11.108Z,101073.19
2022-09-10T07:19:39.714Z,101073.94
2022-09-10T07:22:07.807Z,101077.41
2022-09-10T07:24:37.276Z,101076.44
2022-09-10T07:27:06.282Z,101073.72
2022-09-10T07:29:35.430Z,101076.31
2022-09-10T07:32:04.401Z,101073.56
2022-09-10T07:34:32.643Z,101084.16
2022-09-10T07:37:00.659Z,101077.91
2022-09-10T07:39:29.328Z,101081.38
2022-09-10T07:42:00.240Z,101083.03
2022-09-10T07:44:28.361Z,101088.16
2022-09-10T07:46:56.730Z,101095.13
2022-09-10T07:49:26.459Z,101086.19
2022-09-10T07:51:59.627Z,101090.41
2022-09-10T07:54:28.446Z,101092.81
2022-09-10T07:56:58.159Z,101101.50
2022-09-10T07:59:26.721Z,101109.34
2022-09-10T08:01:55.146Z,101102.19
2022-09-10T08:04:23.552Z,101112.81
2022-09-10T08:06:52.155Z,101111.94
2022-09-10T08:09:23.442Z,101108.38
2022-09-10T08:11:51.530Z,101118.09
2022-09-10T08:14:21.047Z,101118.03
2022-09-10T08:16:49.435Z,101117.16
2022-09-10T08:19:18.110Z,101117.91
2022-09-10T08:21:47.633Z,101131.19
2022-09-10T08:24:15.688Z,101128.63
2022-09-10T08:26:43.983Z,101124.16
2022-09-10T08:29:12.123Z,101132.81
2022-09-10T08:31:42.464Z,101125.59
2022-09-10T08:34:13.706Z,101140.56
2022-09-10T08:36:42.636Z,101137.88
2022-09-10T08:39:10.773Z,101138.75
2022-09-10T08:41:48.470Z,101147.63
2022-09-10T08:44:34.640Z,101141.38
2022-09-10T08:47:20.420Z,101149.19
2022-09-10T08:49:53.341Z,101148.25
2022-09-10T08:52:31.079Z,101153.66
2022-09-10T08:55:07.401Z,101155.47
2022-09-10T08:57:41.785Z,101165.16
2022-09-10T09:00:16.650Z,101165.09
2022-09-10T09:02:56.508Z,101170.41
2022-09-10T09:05:28.238Z,101171.28
2022-09-10T09:07:59.531Z,101175.72
2022-09-10T09:10:40.457Z,101174.72
2022-09-10T09:14:01.772Z,101182.50
2022-09-10T09:16:54.495Z,101189.38
2022-09-10T09:19:33.984Z,101183.00
2022-09-10T09:22:09.430Z,101184.47
2022-09-10T09:24:53.047Z,101186.06
2022-09-10T09:27:21.209Z,101194.69
2022-09-10T09:29:55.970Z,101193.44
2022-09-10T09:32:25.091Z,101190.53
2022-09-10T09:34:58.664Z,101191.97
2022-09-10T09:37:30.430Z,101201.34
2022-09-10T09:40:13.452Z,101201.09
2022-09-10T09:42:46.560Z,101199.94
2022-09-10T09:45:25.802Z,101197.69
2022-09-10T09:47:55.899Z,101209.81
2022-09-10T09:50:25.451Z,101206.00
2022-09-10T09:52:57.407Z,101198.53
2022-09-10T09:55:34.438Z,101206.94
2022-09-10T09:58:37.446Z,101204.53
2022-09-10T10:01:19.739Z,101199.47
2022-09-10T10:04:01.556Z,101203.41
2022-09-10T10:06:34.608Z,101208.13
2022-09-10T10:09:06.228Z,101198.72
2022-09-10T10:11:53.769Z,101201.84
2022-09-10T10:14:44.028Z,101201.53
2022-09-10T10:17:36.032Z,101206.84
2022-09-10T10:20:12.086Z,101206.84
2022-09-10T10:22:42.892Z,101203.97
2022-09-10T10:25:41.254Z,101201.25
2022-09-10T10:28:25.558Z,101210.59
2022-09-10T10:30:54.968Z,101202.19
2022-09-10T10:33:29.734Z,101212.50
2022-09-10T10:36:08.504Z,101210.44
2022-09-10T10:38:41.239Z,101217.56
2022-09-10T10:41:46.814Z,101215.84
2022-09-10T10:44:36.044Z,101217.06
2022-09-10T10:47:26.394Z,101216.25
2022-09-10T10:50:08.942Z,101212.78
2022-09-10T10:52:46.585Z,101206.53
2022-09-10T10:55:24.353Z,101205.00
2022-09-10T10:58:08.638Z,101202.13
2022-09-10T11:00:42.404Z,101200.09
2022-09-10T11:03:17.748Z,101200.97
2022-09-10T11:05:49.953Z,101205.34
2022-09-10T11:08:25.150Z,101204.03
2022-09-10T11:11:01.186Z,101207.97
2022-09-10T11:13:37.741Z,101204.13
2022-09-10T11:16:11.663Z,101202.94
2022-09-10T11:18:48.773Z,101203.72
2022-09-10T11:21:27.276Z,101200.78
2022-09-10T11:24:01.868Z,101195.06
2022-09-10T11:26:37.739Z,101190.63
2022-09-10T11:29:25.336Z,101196.13
2022-09-10T11:32:00.713Z,101200.78
2022-09-10T11:34:39.087Z,101187.25
2022-09-10T11:37:16.348Z,101190.44
2022-09-10T11:39:50.002Z,101193.72
2022-09-10T11:42:25.837Z,101198.84
2022-09-10T11:45:03.981Z,101193.44
2022-09-10T11:47:36.683Z,101193.53
2022-09-10T11:50:15.540Z,101190.78
2022-09-10T11:52:44.061Z,101181.69
2022-09-10T11:55:17.424Z,101185.03
2022-09-10T11:58:02.615Z,101186.00
2022-09-10T12:00:32.103Z,101191.19
2022-09-10T12:03:41.969Z,101184.69
2022-09-10T12:06:17.376Z,101187.31
2022-09-10T12:09:00.889Z,101192.94
2022-09-10T12:11:38.455Z,101197.00
2022-09-10T12:14:16.280Z,101199.34
2022-09-10T12:16:50.119Z,101201.25
2022-09-10T12:19:26.872Z,101204.53
2022-09-10T12:21:59.421Z,101203.97
2022-09-10T12:24:32.101Z,101203.28
2022-09-10T12:27:02.081Z,101205.34
2022-09-10T12:29:37.158Z,101202.81
2022-09-10T12:32:38.850Z,101207.03
2022-09-10T12:35:47.634Z,101202.31
2022-09-10T12:38:53.660Z,101209.72
2022-09-10T12:42:00.695Z,101209.88
2022-09-10T12:44:48.533Z,101214.41
2022-09-10T12:47:52.460Z,101217.09
2022-09-10T12:50:37.382Z,101213.19
2022-09-10T12:53:50.616Z,101221.63
2022-09-10T12:57:21.150Z,101221.50
2022-09-10T13:00:13.412Z,101212.59
2022-09-10T13:02:51.561Z,101216.13
2022-09-10T13:05:28.835Z,101218.41
2022-09-10T13:08:20.824Z,101216.31
2022-09-10T13:11:11.980Z,101217.44
2022-09-10T13:13:45.453Z,101215.47
2022-09-10T13:16:19.399Z,101215.47
2022-09-10T13:18:48.432Z,101219.91
2022-09-10T13:21:54.988Z,101223.75
2022-09-10T13:25:02.960Z,101221.84
2022-09-10T13:27:41.834Z,101212.53
2022-09-10T13:30:18.740Z,101209.28
2022-09-10T13:32:53.235Z,101223.38
2022-09-10T13:35:57.071Z,101220.31
2022-09-10T13:39:03.140Z,101219.78
2022-09-10T13:42:03.939Z,101210.13
2022-09-10T13:44:51.180Z,101223.34
2022-09-10T13:47:29.979Z,101212.13
2022-09-10T13:50:05.260Z,101213.13
2022-09-10T13:52:36.575Z,101211.91
2022-09-10T13:55:08.557Z,101214.50
2022-09-10T13:57:41.714Z,101219.56
2022-09-10T14:00:23.869Z,101218.25
2022-09-10T14:02:55.019Z,101223.56
2022-09-10T14:05:28.399Z,101215.47
2022-09-10T14:08:01.568Z,101222.97
2022-09-10T14:10:30.311Z,101224.88
2022-09-10T14:13:00.168Z,101217.94
2022-09-10T14:15:37.607Z,101209.72
2022-09-10T14:18:06.353Z,101210.94
2022-09-10T14:20:37.507Z,101210.75
2022-09-10T14:23:08.915Z,101218.72
2022-09-10T14:25:40.194Z,101208.69
2022-09-10T14:28:25.886Z,101220.22
2022-09-10T14:31:21.528Z,101211.47
2022-09-10T14:33:49.874Z,101224.63
2022-09-10T14:36:24.507Z,101228.19
2022-09-10T14:39:04.265Z,101224.91
2022-09-10T14:41:34.937Z,101228.53
2022-09-10T14:44:29.727Z,101234.38
2022-09-10T14:47:00.494Z,101230.53
2022-09-10T14:49:32.687Z,101230.34
2022-09-10T14:52:04.063Z,101228.06
2022-09-10T14:54:33.801Z,101235.88
2022-09-10T14:57:05.371Z,101235.50
2022-09-10T14:59:36.398Z,101240.59
2022-09-10T15:02:16.294Z,101238.97
2022-09-10T15:04:45.225Z,101232.31
2022-09-10T15:07:14.836Z,101232.94
2022-09-10T15:09:42.926Z,101231.00
2022-09-10T15:12:19.507Z,101236.19
2022-09-10T15:14:47.876Z,101235.94
2022-09-10T15:17:17.498Z,101239.47
2022-09-10T15:19:48.582Z,101247.44
2022-09-10T15:22:24.729Z,101249.44
2022-09-10T15:25:09.214Z,101253.66
2022-09-10T15:27:38.464Z,101249.06
2022-09-10T15:30:08.515Z,101249.56
2022-09-10T15:32:36.582Z,101260.31
2022-09-10T15:35:05.732Z,101251.72
2022-09-10T15:37:35.189Z,101255.53
2022-09-10T15:40:04.127Z,101263.38
2022-09-10T15:42:32.500Z,101262.41
2022-09-10T15:45:00.575Z,101257.22
2022-09-10T15:47:28.738Z,101270.28
2022-09-10T15:49:57.129Z,101270.41
2022-09-10T15:52:29.894Z,101266.06
2022-09-10T15:55:01.491Z,101265.75
2022-09-10T15:57:30.941Z,101271.09
2022-09-10T16:00:01.704Z,101262.63
2022-09-10T16:02:29.926Z,101257.81
2022-09-10T16:04:58.050Z,101267.78
2022-09-10T16:07:26.147Z,101266.38
2022-09-10T16:09:54.202Z,101269.16
2022-09-10T16:12:23.766Z,101277.91
2022-09-10T16:14:52.927Z,101272.16
2022-09-10T16:17:21.151Z,101282.28
2022-09-10T16:19:49.605Z,101282.91
2022-09-10T16:22:20.658Z,101288.75
2022-09-10T16:24:52.944Z,101287.78
2022-09-10T16:27:24.539Z,101299.66
2022-09-10T16:29:53.125Z,101310.19
2022-09-10T16:32:21.818Z,101316.56
2022-09-10T16:34:49.916Z,101317.94
2022-09-10T16:37:18.356Z,101316.22
2022-09-10T16:39:46.554Z,101331.09
2022-09-10T16:42:14.590Z,101325.94
2022-09-10T16:44:44.696Z,101330.16
2022-09-10T16:47:12.792Z,101324.94
2022-09-10T16:49:41.371Z,101325.88
2022-09-10T16:52:09.522Z,101327.50
2022-09-10T16:54:38.433Z,101338.91
2022-09-10T16:57:06.523Z,101337.19
2022-09-10T16:59:35.116Z,101338.19
2022-09-10T17:02:05.315Z,101341.69
2022-09-10T17:04:33.645Z,101337.28
2022-09-10T17:07:01.670Z,101355.53
2022-09-10T17:09:30.029Z,101348.19
2022-09-10T17:11:58.101Z,101342.97
2022-09-10T17:14:26.258Z,101344.94
2022-09-10T17:16:54.723Z,101337.81
2022-09-10T17:19:26.413Z,101344.97
2022-09-10T17:21:57.147Z,101346.81
2022-09-10T17:24:27.713Z,101346.59
2022-09-10T17:26:56.293Z,101347.09
2022-09-10T17:29:26.725Z,101353.88
2022-09-10T17:31:57.246Z,101358.06
2022-09-10T17:34:27.981Z,101362.63
2022-09-10T17:36:56.168Z,101369.41
2022-09-10T17:39:28.178Z,101374.22
2022-09-10T17:41:56.363Z,101369.44
2022-09-10T17:44:25.674Z,101377.31
2022-09-10T17:46:55.082Z,101380.19
2022-09-10T17:49:23.916Z,101388.88
2022-09-10T17:51:53.564Z,101382.19
2022-09-10T17:54:23.402Z,101387.81
2022-09-10T17:56:51.478Z,101396.06
2022-09-10T17:59:20.050Z,101391.63
2022-09-10T18:01:48.901Z,101401.41
2022-09-10T18:04:17.022Z,101408.41
2022-09-10T18:06:50.181Z,101406.38
2022-09-10T18:09:21.960Z,101410.53
2022-09-10T18:11:50.120Z,101414.72
2022-09-10T18:14:21.499Z,101419.59
2022-09-10T18:16:51.102Z,101420.88
2022-09-10T18:19:19.697Z,101419.34
2022-09-10T18:21:50.953Z,101425.75
2022-09-10T18:24:23.605Z,101425.88
2022-09-10T18:26:54.041Z,101426.16
2022-09-10T18:29:24.963Z,101431.66
2022-09-10T18:31:55.696Z,101438.94
2022-09-10T18:34:27.601Z,101448.91
2022-09-10T18:36:58.640Z,101449.13
2022-09-10T18:39:30.719Z,101451.16
2022-09-10T18:42:00.629Z,101460.34
2022-09-10T18:44:31.282Z,101464.13
2022-09-10T18:47:02.516Z,101469.75
2022-09-10T18:49:33.553Z,101469.97
2022-09-10T18:52:02.237Z,101471.88
2022-09-10T18:54:31.796Z,101482.56
2022-09-10T18:57:01.201Z,101480.84
2022-09-10T18:59:31.582Z,101483.44
2022-09-10T19:01:59.776Z,101495.84
2022-09-10T19:04:30.580Z,101495.84
2022-09-10T19:06:59.238Z,101498.59
2022-09-10T19:09:32.350Z,101497.06
2022-09-10T19:12:01.385Z,101499.06
2022-09-10T19:14:35.905Z,101516.06
2022-09-10T19:17:04.728Z,101518.00
2022-09-10T19:19:36.254Z,101516.28
2022-09-10T19:22:07.318Z,101519.91
2022-09-10T19:24:53.973Z,101527.88
2022-09-10T19:27:24.082Z,101529.69
2022-09-10T19:29:53.334Z,101536.00
2022-09-10T19:32:21.365Z,101531.69
2022-09-10T19:34:51.337Z,101538.94
2022-09-10T19:37:19.624Z,101541.72
2022-09-10T19:39:49.248Z,101543.66
2022-09-10T19:42:17.821Z,101548.22
2022-09-10T19:44:45.910Z,101547.44
2022-09-10T19:47:14.214Z,101536.06
2022-09-10T19:49:42.414Z,101535.34
2022-09-10T19:52:11.263Z,101531.06
2022-09-10T19:54:39.779Z,101535.59
2022-09-10T19:57:11.034Z,101540.13
2022-09-10T19:59:39.376Z,101547.28
2022-09-10T20:02:07.836Z,101553.56
2022-09-10T20:04:36.809Z,101558.06
2022-09-10T20:07:05.046Z,101558.16
2022-09-10T20:09:36.729Z,101565.31
2022-09-10T20:12:10.792Z,101560.09
2022-09-10T20:14:39.062Z,101561.06
2022-09-10T20:17:07.206Z,101574.38
2022-09-10T20:19:35.540Z,101574.44
2022-09-10T20:22:03.686Z,101573.63
2022-09-10T20:24:31.993Z,101572.84
2022-09-10T20:27:00.129Z,101569.38
2022-09-10T20:29:32.885Z,101573.88
2022-09-10T20:32:01.532Z,101569.56
2022-09-10T20:34:29.759Z,101570.50
2022-09-10T20:36:57.902Z,101571.44
2022-09-10T20:39:26.097Z,101579.44
2022-09-10T20:41:54.771Z,101582.16
2022-09-10T20:44:22.984Z,101581.31
2022-09-10T20:46:54.353Z,101586.66
2022-09-10T20:49:22.757Z,101592.00
2022-09-10T20:51:50.874Z,101592.94
2022-09-10T20:54:20.158Z,101600.91
2022-09-10T20:56:48.209Z,101600.06
2022-09-10T20:59:19.147Z,101596.56
2022-09-10T21:01:50.659Z,101606.28
2022-09-10T21:04:23.105Z,101606.34
2022-09-10T21:06:51.136Z,101615.19
2022-09-10T21:09:19.467Z,101609.94
2022-09-10T21:11:47.654Z,101614.38
2022-09-10T21:14:16.050Z,101607.34
2022-09-10T21:16:45.202Z,101602.09
2022-09-10T21:19:18.913Z,101610.03
2022-09-10T21:21:49.659Z,101606.56
2022-09-10T21:24:22.541Z,101609.25
2022-09-10T21:26:53.553Z,101611.03
2022-09-10T21:29:23.211Z,101605.78
2022-09-10T21:31:53.495Z,101604.06
2022-09-10T21:34:21.795Z,101610.31
2022-09-10T21:36:51.706Z,101610.34
2022-09-10T21:39:19.806Z,101613.91
2022-09-10T21:41:50.208Z,101607.78
2022-09-10T21:44:21.955Z,101612.22
2022-09-10T21:46:51.499Z,101608.75
2022-09-10T21:49:21.211Z,101605.25
2022-09-10T21:51:50.975Z,101602.66
2022-09-10T21:54:21.919Z,101608.84
2022-09-10T21:56:51.088Z,101615.91
2022-09-10T21:59:21.366Z,101615.06
2022-09-10T22:01:50.142Z,101618.56
2022-09-10T22:04:22.404Z,101615.06
2022-09-10T22:06:53.895Z,101617.69
2022-09-10T22:09:22.518Z,101622.13
2022-09-10T22:11:54.246Z,101610.66
2022-09-10T22:14:24.718Z,101615.13
2022-09-10T22:16:53.419Z,101616.03
2022-09-10T22:19:24.218Z,101627.47
2022-09-10T22:21:56.759Z,101630.16
2022-09-10T22:24:24.946Z,101628.38
2022-09-10T22:26:53.443Z,101628.41
2022-09-10T22:29:22.071Z,101634.56
2022-09-10T22:31:50.668Z,101633.69
2022-09-10T22:34:20.494Z,101639.88
2022-09-10T22:36:49.508Z,101647.81
2022-09-10T22:39:20.875Z,101640.78
2022-09-10T22:41:49.953Z,101639.03
2022-09-10T22:44:19.790Z,101641.69
2022-09-10T22:46:48.351Z,101648.75
2022-09-10T22:49:17.774Z,101653.16
2022-09-10T22:51:45.990Z,101667.25
2022-09-10T22:54:17.013Z,101660.22
2022-09-10T22:56:46.743Z,101662.84
2022-09-10T22:59:16.213Z,101658.47
2022-09-10T23:01:47.419Z,101664.66
2022-09-10T23:04:15.868Z,101671.69
2022-09-10T23:06:44.217Z,101666.41
2022-09-10T23:09:15.459Z,101669.94
2022-09-10T23:11:45.905Z,101668.22
2022-09-10T23:14:17.695Z,101664.69
2022-09-10T23:16:48.634Z,101669.97
2022-09-10T23:19:20.106Z,101674.38
2022-09-10T23:21:51.095Z,101673.50
2022-09-10T23:24:24.080Z,101676.16
2022-09-10T23:26:54.271Z,101681.44
2022-09-10T23:29:23.261Z,101681.44
2022-09-10T23:31:53.383Z,101685.84
2022-09-10T23:34:22.749Z,101688.50
2022-09-10T23:36:51.194Z,101685.88
2022-09-10T23:39:21.269Z,101677.09
2022-09-10T23:41:50.056Z,101683.25
2022-09-10T23:44:20.226Z,101685.00
2022-09-10T23:46:49.025Z,101686.78
2022-09-10T23:49:17.404Z,101690.28
2022-09-10T23:51:45.654Z,101698.22
2022-09-10T23:54:15.244Z,101706.16
2022-09-10T23:56:43.783Z,101709.66
2022-09-10T23:59:12.743Z,101709.69
